Time;durP1;ratioP1;P1;durP2;ratioP2;P2;SDS_P1;SDS_P2;PMS_P1;PMS_P2;Temp;Humidity;BMP_temperature;BMP_pressure;BME280_temperature;BME280_humidity;BME280_pressure;Samples;Min_cycle;Max_cycle;Signal;HPM_P1;HPM_P2
2023/11/02 00:01:27;;;;;;;4.25;3.60;;;6.80;99.90;;;;;;7519690;19;20927;-77
2023/11/02 00:03:59;;;;;;;8.30;3.88;;;6.90;99.90;;;;;;7525858;19;20018;-78
2023/11/02 00:06:37;;;;;;;6.38;3.88;;;6.90;99.90;;;;;;7498645;19;20579;-78
2023/11/02 00:09:12;;;;;;;12.48;3.90;;;6.80;99.90;;;;;;7507395;19;20021;-76
2023/11/02 00:11:48;;;;;;;7.55;3.20;;;6.80;99.90;;;;;;7494909;19;20965;-79
2023/11/02 00:14:22;;;;;;;6.63;3.70;;;6.70;99.90;;;;;;7501259;19;20368;-77
2023/11/02 00:16:58;;;;;;;5.97;3.47;;;6.70;99.90;;;;;;7501462;19;20086;-77
2023/11/02 00:19:35;;;;;;;5.93;3.53;;;6.70;99.90;;;;;;7503530;19;20476;-77
2023/11/02 00:22:08;;;;;;;5.18;3.22;;;6.70;99.90;;;;;;7508443;19;20391;-77
2023/11/02 00:24:42;;;;;;;4.20;3.38;;;6.60;99.90;;;;;;7538054;19;20058;-76
2023/11/02 00:27:14;;;;;;;6.00;3.97;;;6.60;99.90;;;;;;7525870;19;20684;-78
2023/11/02 00:29:47;;;;;;;7.67;3.50;;;6.60;99.90;;;;;;7513941;19;21537;-77
2023/11/02 00:32:20;;;;;;;4.80;3.50;;;6.50;99.90;;;;;;7526586;19;20472;-77
2023/11/02 00:34:53;;;;;;;6.15;2.88;;;6.60;99.90;;;;;;7534595;19;20018;-77
2023/11/02 00:37:25;;;;;;;6.07;3.40;;;6.60;99.90;;;;;;7521430;19;20350;-77
2023/11/02 00:39:58;;;;;;;7.63;2.78;;;6.60;99.90;;;;;;7520302;19;20032;-78
2023/11/02 00:42:30;;;;;;;3.78;2.50;;;6.60;99.90;;;;;;7529130;19;21359;-77
2023/11/02 00:45:02;;;;;;;7.03;3.65;;;6.60;99.90;;;;;;7517317;19;20010;-77
2023/11/02 00:47:35;;;;;;;4.00;3.20;;;6.50;99.90;;;;;;7525254;19;20368;-78
2023/11/02 00:50:42;;;;;;;4.40;2.58;;;6.50;99.90;;;;;;7506168;19;20117;-77
2023/11/02 00:53:14;;;;;;;4.65;2.78;;;6.60;99.90;;;;;;7517215;19;20415;-77
2023/11/02 00:55:46;;;;;;;4.38;2.85;;;6.70;99.90;;;;;;7524483;19;20431;-77
2023/11/02 00:58:29;;;;;;;4.88;2.88;;;6.60;99.90;;;;;;7524216;19;20125;-80
2023/11/02 01:01:07;;;;;;;4.50;3.17;;;6.50;99.90;;;;;;7503489;19;20329;-77
2023/11/02 01:03:45;;;;;;;5.80;2.50;;;6.50;99.90;;;;;;7510161;19;20021;-77
2023/11/02 01:06:19;;;;;;;5.07;2.90;;;6.60;99.90;;;;;;7512923;19;20013;-77
2023/11/02 01:09:02;;;;;;;5.85;2.88;;;6.50;99.90;;;;;;7515046;19;20006;-77
2023/11/02 01:11:37;;;;;;;3.67;2.40;;;6.50;99.90;;;;;;7521423;19;20102;-77
2023/11/02 01:14:41;;;;;;;3.10;2.47;;;6.40;99.90;;;;;;7523822;19;20481;-78
2023/11/02 01:17:29;;;;;;;5.55;3.05;;;6.50;99.90;;;;;;7506941;19;20642;-76
2023/11/02 01:20:14;;;;;;;5.07;2.50;;;6.60;99.90;;;;;;7524843;19;20049;-78
2023/11/02 01:22:47;;;;;;;3.03;2.30;;;6.60;99.90;;;;;;7515363;19;20026;-77
2023/11/02 01:25:21;;;;;;;7.88;3.42;;;6.50;99.90;;;;;;7512230;19;21123;-78
2023/11/02 01:27:59;;;;;;;6.43;2.83;;;6.40;99.90;;;;;;7502286;19;20030;-77
2023/11/02 01:30:36;;;;;;;4.97;2.60;;;6.40;99.90;;;;;;7504480;19;20019;-78
2023/11/02 01:33:33;;;;;;;6.70;3.17;;;6.40;99.90;;;;;;7511475;19;20893;-77
2023/11/02 01:36:07;;;;;;;4.00;2.72;;;6.40;99.90;;;;;;7520184;19;21028;-77
2023/11/02 01:38:41;;;;;;;8.15;2.85;;;6.40;99.90;;;;;;7514872;19;20018;-76
2023/11/02 01:41:28;;;;;;;4.38;2.58;;;6.30;99.90;;;;;;7525404;19;21358;-77
2023/11/02 01:44:19;;;;;;;4.05;2.65;;;6.20;99.90;;;;;;7525140;19;20078;-78
2023/11/02 01:46:54;;;;;;;4.65;2.60;;;6.20;99.90;;;;;;7509434;19;20420;-77
2023/11/02 01:49:48;;;;;;;3.58;2.03;;;6.20;99.90;;;;;;7518283;19;21043;-77
2023/11/02 01:52:51;;;;;;;5.82;2.75;;;6.20;99.90;;;;;;7527743;19;20018;-78
2023/11/02 01:55:56;;;;;;;3.22;2.55;;;6.10;99.90;;;;;;7501560;19;20052;-77
2023/11/02 01:58:49;;;;;;;3.55;2.50;;;6.10;99.90;;;;;;7495689;19;22384;-76
2023/11/02 02:01:26;;;;;;;4.57;2.45;;;6.10;99.90;;;;;;7473192;19;20082;-77
2023/11/02 02:04:11;;;;;;;6.90;2.70;;;6.20;99.90;;;;;;7501595;19;20094;-77
2023/11/02 02:07:03;;;;;;;3.80;2.38;;;6.20;99.90;;;;;;7512353;19;20010;-77
2023/11/02 02:09:42;;;;;;;6.20;2.55;;;6.20;99.90;;;;;;7515597;19;20020;-77
2023/11/02 02:12:44;;;;;;;3.25;2.58;;;6.20;99.90;;;;;;7490428;19;20358;-77
2023/11/02 02:15:31;;;;;;;3.78;2.58;;;6.10;99.90;;;;;;7502232;19;21379;-77
2023/11/02 02:18:31;;;;;;;4.05;2.47;;;6.10;99.90;;;;;;7505264;19;20407;-77
2023/11/02 02:21:44;;;;;;;10.13;3.05;;;6.00;99.90;;;;;;7513378;19;20048;-77
2023/11/02 02:24:55;;;;;;;4.32;2.33;;;6.00;99.90;;;;;;7501824;19;20414;-77
2023/11/02 02:28:25;;;;;;;3.08;2.15;;;5.90;99.90;;;;;;7516611;19;20018;-77
2023/11/02 02:31:09;;;;;;;4.30;2.45;;;5.90;99.90;;;;;;7527470;19;21287;-77
2023/11/02 02:33:45;;;;;;;4.90;2.05;;;5.90;99.90;;;;;;7524013;19;20014;-77
2023/11/02 02:36:22;;;;;;;3.15;1.98;;;5.90;99.90;;;;;;7505163;19;20022;-78
2023/11/02 02:39:05;;;;;;;3.15;2.08;;;6.00;99.90;;;;;;7519706;19;20021;-78
2023/11/02 02:41:41;;;;;;;2.47;1.70;;;6.10;99.90;;;;;;7511956;19;20335;-77
2023/11/02 02:44:17;;;;;;;5.47;2.08;;;6.20;99.90;;;;;;7508793;19;20536;-78
2023/11/02 02:46:52;;;;;;;2.05;1.55;;;6.20;99.90;;;;;;7505194;19;20487;-77
2023/11/02 02:49:31;;;;;;;3.75;2.40;;;6.30;99.90;;;;;;7508779;19;20014;-77
2023/11/02 02:52:07;;;;;;;3.50;2.10;;;6.30;99.90;;;;;;7506970;19;21375;-78
2023/11/02 02:54:44;;;;;;;3.40;1.90;;;6.30;99.90;;;;;;7498775;19;20658;-77
2023/11/02 02:57:19;;;;;;;6.97;2.20;;;6.30;99.90;;;;;;7500213;19;20011;-78
2023/11/02 02:59:55;;;;;;;5.30;1.90;;;6.20;99.90;;;;;;7497031;19;20011;-77
2023/11/02 03:02:32;;;;;;;5.25;2.20;;;6.20;99.90;;;;;;7490901;19;20284;-77
2023/11/02 03:05:09;;;;;;;4.80;2.30;;;6.10;99.90;;;;;;7500687;19;20030;-77
2023/11/02 03:07:46;;;;;;;3.13;2.15;;;6.00;99.90;;;;;;7507485;19;20045;-77
2023/11/02 03:10:20;;;;;;;3.55;2.20;;;5.90;99.90;;;;;;7505670;19;20014;-77
2023/11/02 03:12:59;;;;;;;2.70;1.90;;;5.90;99.90;;;;;;7497615;19;20022;-78
2023/11/02 03:15:33;;;;;;;5.43;1.80;;;5.80;99.90;;;;;;7499229;19;20504;-78
2023/11/02 03:18:11;;;;;;;7.05;2.63;;;5.90;99.90;;;;;;7496493;19;20011;-78
2023/11/02 03:20:48;;;;;;;2.58;1.95;;;6.00;99.90;;;;;;7515085;19;20029;-79
2023/11/02 03:23:23;;;;;;;2.45;1.92;;;6.20;99.90;;;;;;7506924;19;20583;-77
2023/11/02 03:26:14;;;;;;;4.57;1.75;;;6.20;99.90;;;;;;7523321;19;20249;-79
2023/11/02 03:29:04;;;;;;;2.03;1.60;;;6.40;99.90;;;;;;7522731;19;20191;-78
2023/11/02 03:32:00;;;;;;;4.38;2.20;;;6.50;99.90;;;;;;7516752;19;20071;-78
2023/11/02 03:34:41;;;;;;;4.22;1.83;;;6.40;99.90;;;;;;7503987;19;20575;-79
2023/11/02 03:37:39;;;;;;;4.07;2.15;;;6.40;99.90;;;;;;7520350;19;20010;-78
2023/11/02 03:40:14;;;;;;;4.28;2.10;;;6.30;99.90;;;;;;7513751;19;20551;-77
2023/11/02 03:42:53;;;;;;;2.63;1.80;;;6.30;99.90;;;;;;7513789;19;20800;-78
2023/11/02 03:45:49;;;;;;;2.35;1.70;;;6.30;99.90;;;;;;7511897;19;20027;-79
2023/11/02 03:48:41;;;;;;;3.17;2.22;;;6.30;99.90;;;;;;7519117;19;20010;-77
2023/11/02 03:51:48;;;;;;;4.43;2.00;;;6.40;99.90;;;;;;7510377;19;20998;-78
2023/11/02 03:54:48;;;;;;;4.07;1.95;;;6.40;99.90;;;;;;7498312;19;20796;-78
2023/11/02 03:57:29;;;;;;;6.15;1.70;;;6.40;99.90;;;;;;7500974;19;20514;-78
2023/11/02 04:00:14;;;;;;;3.38;2.00;;;6.40;99.90;;;;;;7512557;19;20022;-77
2023/11/02 04:03:01;;;;;;;4.28;2.00;;;6.40;99.90;;;;;;7503975;19;21013;-76
2023/11/02 04:05:41;;;;;;;4.00;1.65;;;6.40;99.90;;;;;;7509843;19;20651;-77
2023/11/02 04:08:18;;;;;;;7.43;2.80;;;6.50;99.90;;;;;;7512073;19;20579;-77
2023/11/02 04:11:02;;;;;;;4.38;2.13;;;6.40;99.90;;;;;;7505236;19;21310;-77
2023/11/02 04:13:47;;;;;;;;;;;6.40;99.90;;;;;;7501739;19;20892;-76
2023/11/02 04:16:19;;;;;;;;;;;6.40;99.90;;;;;;7496125;19;20329;-77
2023/11/02 04:18:52;;;;;;;5.05;2.15;;;6.40;99.90;;;;;;7499571;19;20189;-77
2023/11/02 04:21:24;;;;;;;4.22;2.35;;;6.40;99.90;;;;;;7496660;19;20006;-77
2023/11/02 04:23:56;;;;;;;3.50;2.15;;;6.40;99.90;;;;;;7506208;19;21069;-77
2023/11/02 04:26:29;;;;;;;3.15;1.90;;;6.40;99.90;;;;;;7507959;19;20022;-76
2023/11/02 04:29:02;;;;;;;2.85;2.20;;;6.40;99.90;;;;;;7506290;19;20018;-79
2023/11/02 04:31:37;;;;;;;4.75;2.50;;;6.40;99.90;;;;;;7505580;19;20094;-78
2023/11/02 04:34:09;;;;;;;3.90;2.30;;;6.40;99.90;;;;;;7498063;19;20014;-76
2023/11/02 04:36:42;;;;;;;3.88;2.20;;;6.40;99.90;;;;;;7500216;19;21005;-78
2023/11/02 04:39:14;;;;;;;5.00;2.08;;;6.40;99.90;;;;;;7520164;19;20094;-78
2023/11/02 04:41:46;;;;;;;3.50;2.05;;;6.40;99.90;;;;;;7492038;19;20994;-80
2023/11/02 04:44:18;;;;;;;5.78;2.00;;;6.40;99.90;;;;;;7525370;19;20671;-78
2023/11/02 04:46:51;;;;;;;3.38;1.90;;;6.30;99.90;;;;;;7498593;19;20022;-77
2023/11/02 04:49:23;;;;;;;3.13;2.10;;;6.30;99.90;;;;;;7503207;19;20011;-77
2023/11/02 04:52:02;;;;;;;5.95;2.03;;;6.30;99.90;;;;;;7497808;19;20563;-78
2023/11/02 04:54:34;;;;;;;4.38;1.67;;;6.30;99.90;;;;;;7500813;19;20329;-77
2023/11/02 04:57:06;;;;;;;3.92;1.73;;;6.30;99.90;;;;;;7501330;19;22074;-76
2023/11/02 04:59:42;;;;;;;2.97;1.88;;;6.30;99.90;;;;;;7506940;19;20022;-77
2023/11/02 05:02:14;;;;;;;5.43;1.55;;;6.30;99.90;;;;;;7490635;19;20500;-77
2023/11/02 05:04:46;;;;;;;2.70;1.70;;;6.20;99.90;;;;;;7493340;19;20015;-77
2023/11/02 05:07:19;;;;;;;2.83;2.00;;;6.20;99.90;;;;;;7517163;19;20060;-78
2023/11/02 05:09:52;;;;;;;2.27;1.57;;;6.30;99.90;;;;;;7479911;19;21154;-78
2023/11/02 05:12:24;;;;;;;4.32;2.00;;;6.40;99.90;;;;;;7502310;19;20922;-77
2023/11/02 05:14:56;;;;;;;2.55;1.77;;;6.40;99.90;;;;;;7513534;19;20610;-77
2023/11/02 05:17:29;;;;;;;2.83;1.85;;;6.40;99.90;;;;;;7496331;19;20006;-77
2023/11/02 05:20:02;;;;;;;2.72;1.60;;;6.40;99.90;;;;;;7486207;19;21290;-76
2023/11/02 05:22:34;;;;;;;4.35;1.70;;;6.50;99.90;;;;;;7499708;19;21315;-79
2023/11/02 05:25:07;;;;;;;2.70;1.50;;;6.60;99.90;;;;;;7512317;19;20226;-78
2023/11/02 05:27:39;;;;;;;1.88;1.40;;;6.60;99.90;;;;;;7518209;19;20014;-78
2023/11/02 05:30:12;;;;;;;2.97;1.45;;;6.70;99.90;;;;;;7514161;19;20382;-78
2023/11/02 05:32:44;;;;;;;1.90;1.50;;;6.80;99.90;;;;;;7495466;19;20018;-78
2023/11/02 05:35:17;;;;;;;1.95;1.35;;;6.80;99.90;;;;;;7506278;19;20543;-79
2023/11/02 05:37:49;;;;;;;5.45;1.50;;;6.80;99.90;;;;;;7518355;19;20011;-79
2023/11/02 05:40:21;;;;;;;5.13;1.70;;;6.90;99.90;;;;;;7531913;19;20014;-79
2023/11/02 05:42:53;;;;;;;3.92;1.50;;;7.00;99.90;;;;;;7508944;19;20407;-78
2023/11/02 05:45:25;;;;;;;2.05;1.52;;;7.10;99.90;;;;;;7526087;19;22085;-79
2023/11/02 05:47:58;;;;;;;3.78;1.42;;;7.10;99.90;;;;;;7504538;19;20691;-78
2023/11/02 05:50:31;;;;;;;2.60;1.33;;;7.10;99.90;;;;;;7520965;19;20380;-78
2023/11/02 05:53:04;;;;;;;2.50;1.23;;;7.20;99.90;;;;;;7512147;19;20301;-77
2023/11/02 05:55:36;;;;;;;3.90;1.27;;;7.30;99.90;;;;;;7510926;19;20014;-78
2023/11/02 05:58:09;;;;;;;2.28;1.40;;;7.40;99.90;;;;;;7507265;19;20021;-78
2023/11/02 06:00:42;;;;;;;3.55;1.50;;;7.50;99.90;;;;;;7500321;19;20480;-78
2023/11/02 06:03:14;;;;;;;1.95;1.10;;;7.60;99.90;;;;;;7500252;19;20040;-80
2023/11/02 06:05:46;;;;;;;6.13;1.52;;;7.60;99.90;;;;;;7506106;19;20015;-79
2023/11/02 06:08:19;;;;;;;2.35;1.30;;;7.60;99.90;;;;;;7519898;19;21899;-78
2023/11/02 06:10:52;;;;;;;2.53;1.67;;;7.60;99.90;;;;;;7513522;19;21056;-79
2023/11/02 06:13:24;;;;;;;5.53;1.40;;;7.50;99.90;;;;;;7503762;19;20101;-79
2023/11/02 06:15:57;;;;;;;3.38;1.40;;;7.50;99.90;;;;;;7503993;19;20651;-77
2023/11/02 06:18:29;;;;;;;2.70;1.77;;;7.50;99.90;;;;;;7501738;19;20011;-78
2023/11/02 06:21:02;;;;;;;6.18;1.52;;;7.60;99.90;;;;;;7502258;19;21094;-79
2023/11/02 06:23:34;;;;;;;4.65;1.60;;;7.60;99.90;;;;;;7507763;19;20508;-77
2023/11/02 06:26:06;;;;;;;2.97;1.48;;;7.60;99.90;;;;;;7497267;19;20984;-78
2023/11/02 06:28:39;;;;;;;3.55;1.45;;;7.60;99.90;;;;;;7490949;19;20018;-78
2023/11/02 06:31:11;;;;;;;5.15;1.50;;;7.70;99.90;;;;;;7498962;19;20014;-78
2023/11/02 06:33:43;;;;;;;3.67;1.40;;;7.70;99.90;;;;;;7507497;19;20022;-78
2023/11/02 06:36:15;;;;;;;3.13;1.58;;;7.70;99.90;;;;;;7508727;19;20015;-78
2023/11/02 06:38:48;;;;;;;3.33;1.50;;;7.70;99.90;;;;;;7509619;19;20030;-78
2023/11/02 06:41:22;;;;;;;2.00;1.48;;;7.80;99.90;;;;;;7509892;19;20018;-79
2023/11/02 06:43:56;;;;;;;1.45;1.30;;;7.80;99.90;;;;;;7502543;19;20331;-79
2023/11/02 06:46:29;;;;;;;2.25;1.50;;;7.80;99.90;;;;;;7524779;19;20021;-79
2023/11/02 06:49:02;;;;;;;2.20;1.40;;;7.70;99.90;;;;;;7515586;19;20569;-79
2023/11/02 06:51:37;;;;;;;1.55;1.23;;;7.70;99.90;;;;;;7513452;19;20006;-78
2023/11/02 06:54:09;;;;;;;2.13;1.20;;;7.70;99.90;;;;;;7488643;19;20017;-77
2023/11/02 06:56:41;;;;;;;2.85;1.40;;;7.70;99.90;;;;;;7462343;19;21363;-77
2023/11/02 06:59:13;;;;;;;3.90;1.65;;;7.70;99.90;;;;;;7473031;19;20032;-76
2023/11/02 07:01:50;;;;;;;3.47;1.63;;;7.80;99.90;;;;;;7480390;19;20057;-77
2023/11/02 07:04:22;;;;;;;3.20;1.55;;;7.80;99.90;;;;;;7497087;19;20017;-77
2023/11/02 07:06:54;;;;;;;2.55;1.60;;;7.80;99.90;;;;;;7501439;19;20014;-78
2023/11/02 07:09:28;;;;;;;2.80;1.20;;;7.80;99.90;;;;;;7489762;19;20939;-76
2023/11/02 07:12:00;;;;;;;1.98;1.38;;;7.80;99.90;;;;;;7496172;19;22190;-76
2023/11/02 07:14:32;;;;;;;3.72;1.40;;;7.90;99.90;;;;;;7510775;19;20377;-77
2023/11/02 07:17:05;;;;;;;2.80;1.60;;;7.90;99.90;;;;;;7492915;19;20022;-77
2023/11/02 07:19:37;;;;;;;5.07;1.52;;;8.00;99.90;;;;;;7487033;19;20686;-77
2023/11/02 07:22:10;;;;;;;1.73;1.40;;;8.10;99.90;;;;;;7499160;19;20412;-77
2023/11/02 07:24:42;;;;;;;3.28;1.60;;;8.20;99.90;;;;;;7503848;19;20110;-78
2023/11/02 07:27:14;;;;;;;5.13;1.55;;;8.20;99.90;;;;;;7497580;19;20022;-77
2023/11/02 07:29:47;;;;;;;3.17;1.73;;;8.30;99.90;;;;;;7507304;19;20224;-76
2023/11/02 07:32:20;;;;;;;2.53;1.75;;;8.30;99.90;;;;;;7513193;19;20054;-77
2023/11/02 07:34:52;;;;;;;5.15;1.77;;;8.30;99.90;;;;;;7497134;19;20541;-77
2023/11/02 07:37:25;;;;;;;4.35;1.90;;;8.30;99.90;;;;;;7502854;19;20122;-77
2023/11/02 07:40:00;;;;;;;4.28;1.92;;;8.40;99.90;;;;;;7476613;19;20010;-77
2023/11/02 07:42:32;;;;;;;2.70;1.50;;;8.40;99.90;;;;;;7497602;19;20423;-79
2023/11/02 07:45:05;;;;;;;5.63;1.25;;;8.50;99.90;;;;;;7494659;19;20018;-77
2023/11/02 07:47:37;;;;;;;5.20;1.40;;;8.50;99.90;;;;;;7495706;19;20026;-77
2023/11/02 07:50:10;;;;;;;4.53;1.27;;;8.50;99.90;;;;;;7499774;19;20010;-77
2023/11/02 07:52:42;;;;;;;2.83;1.40;;;8.60;99.90;;;;;;7512221;19;20276;-78
2023/11/02 07:55:15;;;;;;;3.60;1.00;;;8.70;99.90;;;;;;7519516;19;20024;-79
2023/11/02 07:57:50;;;;;;;3.72;1.55;;;8.80;99.90;;;;;;7509518;19;20025;-77
2023/11/02 08:00:22;;;;;;;2.17;1.40;;;8.80;99.90;;;;;;7503835;19;20011;-77
2023/11/02 08:02:55;;;;;;;2.50;1.43;;;8.80;99.90;;;;;;7509455;19;20018;-77
2023/11/02 08:05:27;;;;;;;3.97;1.20;;;8.80;99.90;;;;;;7509894;19;21218;-77
2023/11/02 08:07:59;;;;;;;2.80;1.42;;;8.80;99.90;;;;;;7501188;19;20320;-76
2023/11/02 08:10:31;;;;;;;1.42;1.15;;;8.90;99.90;;;;;;7502323;19;20045;-76
2023/11/02 08:13:04;;;;;;;3.22;1.42;;;9.00;99.90;;;;;;7508847;19;20074;-77
2023/11/02 08:15:36;;;;;;;3.88;1.48;;;9.00;99.90;;;;;;7506848;19;20022;-77
2023/11/02 08:18:09;;;;;;;2.95;1.40;;;9.00;99.90;;;;;;7500221;19;20006;-76
2023/11/02 08:20:41;;;;;;;2.20;1.10;;;9.00;99.90;;;;;;7513193;19;20025;-76
2023/11/02 08:23:13;;;;;;;4.32;1.23;;;9.00;99.90;;;;;;7510094;19;20381;-77
2023/11/02 08:25:49;;;;;;;2.88;1.10;;;9.00;99.90;;;;;;7500604;19;20527;-77
2023/11/02 08:28:21;;;;;;;4.82;1.38;;;9.00;99.90;;;;;;7520155;19;20022;-76
2023/11/02 08:30:56;;;;;;;2.33;1.30;;;9.10;99.90;;;;;;7495020;19;20025;-76
2023/11/02 08:33:28;;;;;;;2.92;1.10;;;9.10;99.90;;;;;;7508005;19;20049;-77
2023/11/02 08:36:02;;;;;;;1.57;1.40;;;9.30;99.90;;;;;;7493507;19;20018;-77
2023/11/02 08:38:35;;;;;;;6.35;1.60;;;9.30;99.90;;;;;;7480703;19;20017;-76
2023/11/02 08:41:15;;;;;;;2.30;1.42;;;9.30;99.90;;;;;;7503666;19;20121;-77
2023/11/02 08:43:48;;;;;;;1.98;1.50;;;9.40;99.90;;;;;;7509146;19;20014;-76
2023/11/02 08:46:25;;;;;;;3.38;1.65;;;9.30;99.90;;;;;;7517780;19;20020;-77
2023/11/02 08:48:58;;;;;;;4.15;2.28;;;9.40;99.90;;;;;;7492064;19;20381;-77
2023/11/02 08:51:30;;;;;;;3.38;1.73;;;9.40;99.90;;;;;;7474876;19;20011;-77
2023/11/02 08:54:06;;;;;;;4.33;1.80;;;9.50;99.90;;;;;;7477263;19;20018;-76
2023/11/02 08:56:38;;;;;;;4.82;2.17;;;9.60;99.90;;;;;;7485029;19;20029;-77
2023/11/02 08:59:10;;;;;;;5.22;1.88;;;9.60;99.90;;;;;;7462888;19;20030;-77
2023/11/02 09:01:44;;;;;;;5.43;1.70;;;9.60;99.90;;;;;;7480121;19;20021;-76
2023/11/02 09:04:17;;;;;;;5.47;1.83;;;9.50;99.90;;;;;;7480291;19;20011;-77
2023/11/02 09:06:49;;;;;;;8.40;1.48;;;9.50;99.90;;;;;;7447779;19;20010;-77
2023/11/02 09:09:21;;;;;;;2.58;1.77;;;9.50;99.90;;;;;;7509529;19;20744;-76
2023/11/02 09:11:54;;;;;;;7.68;1.90;;;9.50;99.90;;;;;;7512108;19;20357;-76
2023/11/02 09:14:27;;;;;;;4.97;1.90;;;9.60;99.90;;;;;;7501713;19;21164;-75
2023/11/02 09:17:00;;;;;;;3.47;1.67;;;9.60;99.90;;;;;;7481373;19;20882;-77
2023/11/02 09:19:33;;;;;;;2.83;1.73;;;9.60;99.90;;;;;;7516777;19;20010;-77
2023/11/02 09:22:10;;;;;;;3.28;1.42;;;9.70;99.90;;;;;;7518175;19;20010;-77
2023/11/02 09:24:45;;;;;;;2.88;1.88;;;9.70;99.90;;;;;;7513109;19;20014;-77
2023/11/02 09:27:21;;;;;;;1.85;1.58;;;9.70;99.90;;;;;;7523980;19;20776;-76
2023/11/02 09:29:53;;;;;;;2.90;1.70;;;9.80;99.90;;;;;;7464159;19;25076;-76
2023/11/02 09:32:25;;;;;;;2.47;1.60;;;9.90;99.90;;;;;;7514746;19;20130;-77
2023/11/02 09:34:58;;;;;;;2.13;1.50;;;10.00;99.90;;;;;;7474531;19;20868;-76
2023/11/02 09:37:30;;;;;;;5.03;1.50;;;10.00;99.90;;;;;;7512232;19;21584;-76
2023/11/02 09:40:06;;;;;;;4.28;1.50;;;10.00;99.90;;;;;;7477436;19;20416;-78
2023/11/02 09:42:39;;;;;;;2.30;1.33;;;10.10;99.90;;;;;;7522462;19;20006;-78
2023/11/02 09:45:15;;;;;;;2.17;1.40;;;10.10;99.90;;;;;;7496002;19;20006;-77
2023/11/02 09:47:51;;;;;;;2.05;1.17;;;10.10;99.90;;;;;;7457120;19;20485;-76
2023/11/02 09:50:27;;;;;;;4.10;2.28;;;10.10;99.90;;;;;;7488390;19;23919;-78
2023/11/02 09:53:00;;;;;;;7.88;1.70;;;10.20;99.90;;;;;;7480922;19;21435;-76
2023/11/02 09:55:40;;;;;;;2.65;1.35;;;10.20;99.90;;;;;;7480018;19;20018;-77
2023/11/02 09:58:17;;;;;;;2.15;1.33;;;10.30;99.90;;;;;;7474306;19;20018;-77
2023/11/02 10:00:54;;;;;;;2.63;1.20;;;10.20;99.90;;;;;;7479519;19;20010;-77
2023/11/02 10:03:27;;;;;;;2.33;1.27;;;10.40;99.90;;;;;;7475597;19;20445;-75
2023/11/02 10:06:03;;;;;;;4.73;1.20;;;10.50;99.90;;;;;;7483263;19;20634;-75
2023/11/02 10:08:35;;;;;;;1.40;1.00;;;10.50;99.90;;;;;;7461540;19;20501;-77
2023/11/02 10:11:19;;;;;;;5.05;1.58;;;10.60;99.90;;;;;;7439861;19;20396;-77
2023/11/02 10:13:53;;;;;;;2.78;1.35;;;10.60;99.90;;;;;;7486636;19;20029;-76
2023/11/02 10:16:26;;;;;;;2.90;1.45;;;10.70;99.90;;;;;;7478045;19;20022;-79
2023/11/02 10:18:58;;;;;;;2.78;1.65;;;10.70;99.90;;;;;;7500484;19;20485;-78
2023/11/02 10:21:31;;;;;;;3.67;1.52;;;10.80;99.90;;;;;;7508034;19;20022;-78
2023/11/02 10:24:05;;;;;;;2.47;1.60;;;10.80;99.90;;;;;;7482590;19;20718;-77
2023/11/02 10:26:37;;;;;;;;;;;10.90;99.90;;;;;;7439155;19;20342;-78
2023/11/02 10:29:09;;;;;;;2.35;1.08;;;10.90;99.90;;;;;;7444394;19;19918;-75
2023/11/02 10:31:43;;;;;;;4.00;1.40;;;10.90;99.90;;;;;;7449899;19;20961;-76
2023/11/02 10:34:15;;;;;;;4.88;1.50;;;10.90;99.90;;;;;;7462804;19;20083;-76
2023/11/02 10:36:48;;;;;;;7.45;1.60;;;11.00;99.90;;;;;;7488467;19;21637;-75
2023/11/02 10:39:21;;;;;;;3.58;1.38;;;11.10;99.90;;;;;;7470483;19;20270;-76
2023/11/02 10:42:04;;;;;;;1.60;1.00;;;11.10;99.90;;;;;;7495867;19;20010;-76
2023/11/02 10:44:36;;;;;;;8.45;1.52;;;11.30;99.90;;;;;;7497947;19;20496;-75
2023/11/02 10:47:14;;;;;;;7.30;1.40;;;11.30;99.90;;;;;;7459180;19;20018;-75
2023/11/02 10:49:52;;;;;;;1.98;1.25;;;11.40;99.90;;;;;;7492506;19;20313;-75
2023/11/02 10:52:33;;;;;;;4.53;1.40;;;11.40;99.90;;;;;;7471962;19;20464;-75
2023/11/02 10:55:12;;;;;;;2.30;1.70;;;11.40;99.90;;;;;;7478919;19;20437;-77
2023/11/02 10:57:47;;;;;;;6.85;1.55;;;11.40;99.90;;;;;;7476787;19;20013;-75
2023/11/02 11:00:25;;;;;;;3.45;1.30;;;11.40;99.90;;;;;;7468861;19;20041;-76
2023/11/02 11:02:58;;;;;;;5.43;1.42;;;11.40;99.90;;;;;;7491473;19;20239;-75
2023/11/02 11:05:30;;;;;;;2.13;1.30;;;11.50;99.90;;;;;;7498547;19;20482;-75
2023/11/02 11:08:04;;;;;;;4.03;1.52;;;11.50;99.90;;;;;;7527956;19;20082;-75
2023/11/02 11:10:38;;;;;;;1.90;1.10;;;11.50;99.90;;;;;;7505968;19;20032;-74
2023/11/02 11:13:12;;;;;;;1.50;0.98;;;11.40;99.90;;;;;;7459059;19;20037;-75
2023/11/02 11:15:45;;;;;;;1.95;1.33;;;11.40;99.90;;;;;;7475523;19;20240;-77
2023/11/02 11:18:20;;;;;;;1.30;0.93;;;11.50;99.90;;;;;;7472902;19;21780;-75
2023/11/02 11:20:52;;;;;;;1.95;1.00;;;11.50;99.90;;;;;;7454552;19;20495;-75
2023/11/02 11:23:24;;;;;;;1.23;0.80;;;11.50;99.90;;;;;;7478037;19;20019;-76
2023/11/02 11:25:59;;;;;;;4.03;1.37;;;11.50;99.90;;;;;;7479800;19;20065;-75
2023/11/02 11:28:34;;;;;;;5.30;0.93;;;11.40;99.90;;;;;;7494963;19;20545;-75
2023/11/02 11:31:09;;;;;;;1.73;0.98;;;11.40;99.90;;;;;;7496919;19;20010;-77
2023/11/02 11:33:47;;;;;;;1.83;1.20;;;11.40;99.90;;;;;;7486823;19;20015;-75
2023/11/02 11:36:25;;;;;;;3.30;1.30;;;11.40;99.90;;;;;;7499538;19;21206;-75
2023/11/02 11:38:57;;;;;;;4.18;1.73;;;11.30;99.90;;;;;;7516633;19;20610;-76
2023/11/02 11:41:44;;;;;;;2.38;1.55;;;11.10;99.90;;;;;;7480116;19;20135;-76
2023/11/02 11:44:21;;;;;;;3.20;1.48;;;11.10;99.90;;;;;;7504863;19;20857;-75
2023/11/02 11:46:58;;;;;;;4.80;1.83;;;11.10;99.90;;;;;;7478111;19;20018;-77
2023/11/02 11:49:39;;;;;;;5.53;1.85;;;11.10;99.90;;;;;;7471069;19;20011;-76
2023/11/02 11:52:23;;;;;;;2.90;1.80;;;11.00;99.90;;;;;;7502065;19;20413;-76
2023/11/02 11:54:55;;;;;;;5.55;2.35;;;11.10;99.90;;;;;;7524994;19;20014;-75
2023/11/02 11:57:54;;;;;;;4.82;2.53;;;11.00;99.90;;;;;;7503242;19;20007;-75
2023/11/02 12:00:27;;;;;;;6.88;2.50;;;11.10;99.90;;;;;;7488723;19;20019;-75
2023/11/02 12:03:05;;;;;;;4.88;2.42;;;11.00;99.90;;;;;;7485234;19;20022;-76
2023/11/02 12:05:43;;;;;;;11.45;2.83;;;11.10;99.90;;;;;;7486152;19;20021;-75
2023/11/02 12:08:16;;;;;;;5.72;2.80;;;11.30;99.90;;;;;;7523584;19;20070;-75
2023/11/02 12:10:52;;;;;;;7.40;3.08;;;11.20;99.90;;;;;;7497140;19;20026;-75
2023/11/02 12:13:25;;;;;;;7.60;2.50;;;11.10;99.90;;;;;;7504328;19;20478;-77
2023/11/02 12:15:58;;;;;;;;;;;11.20;99.90;;;;;;7477755;19;20620;-74
2023/11/02 12:18:32;;;;;;;6.50;2.80;;;11.20;99.90;;;;;;7456295;19;19915;-75
2023/11/02 12:21:18;;;;;;;5.15;2.85;;;11.20;99.90;;;;;;7487268;19;20101;-75
2023/11/02 12:23:51;;;;;;;6.07;2.67;;;11.20;99.90;;;;;;7494946;19;20082;-75
2023/11/02 12:26:25;;;;;;;;;;;11.10;99.90;;;;;;7498027;19;20046;-74
2023/11/02 12:28:58;;;;;;;;;;;11.10;99.90;;;;;;7474804;19;21398;-76
2023/11/02 12:31:35;;;;;;;7.93;2.90;;;11.10;99.90;;;;;;7479863;19;20523;-75
2023/11/02 12:34:11;;;;;;;11.70;3.30;;;11.10;99.90;;;;;;7479889;19;20764;-76
2023/11/02 12:36:44;;;;;;;11.30;4.22;;;11.00;99.90;;;;;;7488523;19;20025;-74
2023/11/02 12:39:21;;;;;;;;;;;11.00;99.90;;;;;;7504663;19;20014;-75
2023/11/02 12:41:54;;;;;;;11.00;4.60;;;10.90;99.90;;;;;;7516114;19;20741;-75
2023/11/02 12:44:28;;;;;;;9.40;3.90;;;10.60;99.90;;;;;;7501769;19;20010;-74
2023/11/02 12:47:06;;;;;;;7.38;4.10;;;10.50;99.90;;;;;;7495011;19;20158;-75
2023/11/02 12:49:39;;;;;;;12.10;4.13;;;10.40;99.90;;;;;;7467134;19;20018;-74
2023/11/02 12:52:11;;;;;;;7.43;3.50;;;10.30;99.90;;;;;;7469728;19;20015;-74
2023/11/02 12:54:56;;;;;;;7.70;4.07;;;10.30;99.90;;;;;;7463491;19;20065;-74
2023/11/02 12:57:37;;;;;;;8.15;3.92;;;10.20;99.90;;;;;;7476071;19;20242;-77
2023/11/02 13:00:17;;;;;;;9.40;3.08;;;10.20;99.90;;;;;;7472173;19;21477;-75
2023/11/02 13:02:50;;;;;;;6.28;3.40;;;10.10;99.90;;;;;;7473046;19;20018;-76
2023/11/02 13:05:33;;;;;;;5.38;3.40;;;10.10;99.90;;;;;;7494189;19;21650;-76
2023/11/02 13:08:19;;;;;;;8.95;3.78;;;10.10;99.90;;;;;;7480574;19;21011;-76
2023/11/02 13:10:51;;;;;;;6.70;3.67;;;10.10;99.90;;;;;;7518580;19;20078;-75
2023/11/02 13:13:24;;;;;;;5.60;3.67;;;10.10;99.90;;;;;;7494783;19;20048;-77
2023/11/02 13:15:57;;;;;;;6.68;3.38;;;10.10;99.90;;;;;;7506692;19;20453;-76
2023/11/02 13:18:30;;;;;;;8.07;3.30;;;10.10;99.90;;;;;;7488605;19;20014;-77
2023/11/02 13:21:03;;;;;;;10.27;3.45;;;10.20;99.90;;;;;;7466786;19;20086;-76
2023/11/02 13:23:36;;;;;;;7.35;3.15;;;10.20;99.90;;;;;;7458808;19;21310;-77
2023/11/02 13:26:11;;;;;;;6.55;2.67;;;10.30;99.90;;;;;;7485313;19;20014;-76
2023/11/02 13:28:43;;;;;;;9.15;3.10;;;10.30;99.90;;;;;;7477603;19;20477;-76
2023/11/02 13:31:15;;;;;;;8.15;3.17;;;10.40;99.90;;;;;;7458261;19;21292;-75
2023/11/02 13:33:48;;;;;;;3.85;3.00;;;10.40;99.90;;;;;;7514118;19;20674;-75
2023/11/02 13:36:22;;;;;;;5.43;2.88;;;10.40;99.90;;;;;;7492753;19;20022;-75
2023/11/02 13:38:54;;;;;;;;;;;10.30;99.90;;;;;;7494455;19;20010;-75
2023/11/02 13:41:26;;;;;;;6.68;2.58;;;10.30;99.90;;;;;;7488961;19;20719;-75
2023/11/02 13:43:59;;;;;;;5.30;2.63;;;10.30;99.90;;;;;;7488870;19;23185;-74